createdAt,value
2023-03-17T00:01:53.715Z,4.29
2023-03-17T00:04:23.751Z,4.31
2023-03-17T00:06:52.502Z,4.28
2023-03-17T00:09:21.667Z,4.28
2023-03-17T00:11:50.545Z,4.28
2023-03-17T00:14:19.459Z,4.31
2023-03-17T00:16:50.785Z,4.28
2023-03-17T00:19:26.067Z,4.33
2023-03-17T00:21:55.426Z,4.35
2023-03-17T00:24:23.721Z,4.32
2023-03-17T00:26:52.591Z,4.29
2023-03-17T00:29:21.104Z,4.29
2023-03-17T00:31:51.334Z,4.25
2023-03-17T00:34:24.371Z,4.24
2023-03-17T00:36:52.793Z,4.18
2023-03-17T00:39:24.968Z,4.19
2023-03-17T00:41:55.984Z,4.21
2023-03-17T00:44:24.808Z,4.18
2023-03-17T00:46:54.239Z,4.18
2023-03-17T00:49:24.509Z,4.14
2023-03-17T00:51:54.292Z,4.07
2023-03-17T00:54:23.533Z,3.97
2023-03-17T00:56:52.415Z,3.95
2023-03-17T00:59:27.148Z,4.00
2023-03-17T01:01:55.912Z,3.98
2023-03-17T01:04:24.711Z,4.02
2023-03-17T01:06:53.981Z,4.07
2023-03-17T01:09:25.840Z,4.05
2023-03-17T01:11:54.773Z,4.02
2023-03-17T01:14:24.342Z,4.04
2023-03-17T01:16:54.358Z,3.95
2023-03-17T01:19:23.362Z,3.94
2023-03-17T01:21:52.330Z,3.90
2023-03-17T01:24:20.839Z,3.94
2023-03-17T01:26:49.210Z,3.96
2023-03-17T01:29:17.598Z,4.00
2023-03-17T01:31:46.942Z,3.93
2023-03-17T01:34:15.742Z,4.01
2023-03-17T01:36:46.032Z,3.95
2023-03-17T01:39:15.891Z,3.91
2023-03-17T01:41:44.904Z,3.90
2023-03-17T01:44:16.893Z,3.97
2023-03-17T01:46:46.675Z,4.00
2023-03-17T01:49:21.964Z,3.91
2023-03-17T01:52:05.226Z,3.91
2023-03-17T01:54:39.392Z,3.92
2023-03-17T01:57:12.826Z,3.86
2023-03-17T01:59:46.237Z,3.91
2023-03-17T02:02:19.807Z,3.95
2023-03-17T02:04:49.656Z,3.94
2023-03-17T02:07:19.843Z,3.90
2023-03-17T02:09:48.608Z,3.90
2023-03-17T02:12:16.938Z,3.90
2023-03-17T02:14:45.955Z,3.87
2023-03-17T02:17:14.701Z,3.93
2023-03-17T02:19:44.162Z,3.96
2023-03-17T02:22:13.035Z,3.96
2023-03-17T02:24:46.285Z,3.91
2023-03-17T02:27:17.858Z,3.90
2023-03-17T02:29:46.616Z,3.82
2023-03-17T02:32:17.452Z,3.92
2023-03-17T02:34:46.910Z,3.85
2023-03-17T02:37:16.756Z,3.75
2023-03-17T02:39:45.851Z,3.79
2023-03-17T02:42:14.595Z,3.74
2023-03-17T02:44:42.879Z,3.77
2023-03-17T02:47:12.793Z,3.74
2023-03-17T02:49:42.959Z,3.76
2023-03-17T02:52:12.023Z,3.69
2023-03-17T02:54:40.448Z,3.78
2023-03-17T02:57:08.925Z,3.80
2023-03-17T02:59:37.619Z,3.78
2023-03-17T03:02:06.112Z,3.80
2023-03-17T03:04:35.251Z,3.82
2023-03-17T03:07:03.761Z,3.75
2023-03-17T03:09:32.408Z,3.63
2023-03-17T03:12:00.727Z,3.67
2023-03-17T03:14:29.065Z,3.71
2023-03-17T03:16:57.803Z,3.75
2023-03-17T03:19:26.219Z,3.70
2023-03-17T03:21:54.591Z,3.70
2023-03-17T03:24:23.972Z,3.61
2023-03-17T03:26:52.695Z,3.64
2023-03-17T03:29:21.177Z,3.65
2023-03-17T03:31:49.766Z,3.61
2023-03-17T03:34:18.317Z,3.62
2023-03-17T03:36:46.574Z,3.58
2023-03-17T03:39:15.113Z,3.53
2023-03-17T03:41:43.766Z,3.50
2023-03-17T03:44:12.203Z,3.55
2023-03-17T03:46:40.582Z,3.58
2023-03-17T03:49:09.058Z,3.57
2023-03-17T03:51:37.806Z,3.51
2023-03-17T03:54:06.444Z,3.48
2023-03-17T03:56:34.853Z,3.50
2023-03-17T03:59:03.351Z,3.52
2023-03-17T04:01:31.606Z,3.49
2023-03-17T04:03:59.889Z,3.45
2023-03-17T04:06:28.150Z,3.43
2023-03-17T04:08:58.251Z,3.46
2023-03-17T04:11:26.846Z,3.47
2023-03-17T04:13:55.300Z,3.47
2023-03-17T04:16:23.817Z,3.45
2023-03-17T04:18:52.324Z,3.45
2023-03-17T04:21:21.621Z,3.42
2023-03-17T04:23:50.166Z,3.32
2023-03-17T04:26:18.818Z,3.24
2023-03-17T04:28:47.235Z,3.28
2023-03-17T04:31:16.260Z,3.32
2023-03-17T04:33:44.706Z,3.32
2023-03-17T04:36:18.947Z,3.30
2023-03-17T04:38:47.320Z,3.30
2023-03-17T04:41:16.257Z,3.28
2023-03-17T04:43:44.663Z,3.27
2023-03-17T04:46:13.942Z,3.29
2023-03-17T04:48:42.627Z,3.35
2023-03-17T04:51:11.961Z,3.35
2023-03-17T04:53:40.514Z,3.37
2023-03-17T04:56:09.116Z,3.37
2023-03-17T04:58:37.594Z,3.32
2023-03-17T05:01:06.698Z,3.29
2023-03-17T05:03:35.534Z,3.30
2023-03-17T05:06:04.733Z,3.31
2023-03-17T05:08:33.063Z,3.33
2023-03-17T05:11:01.641Z,3.29
2023-03-17T05:13:31.156Z,3.30
2023-03-17T05:16:00.836Z,3.28
2023-03-17T05:18:29.892Z,3.29
2023-03-17T05:20:58.258Z,3.23
2023-03-17T05:23:26.589Z,3.22
2023-03-17T05:25:55.319Z,3.25
2023-03-17T05:28:24.455Z,3.30
2023-03-17T05:30:53.394Z,3.33
2023-03-17T05:33:22.287Z,3.28
2023-03-17T05:35:52.875Z,3.26
2023-03-17T05:38:21.480Z,3.29
2023-03-17T05:40:50.846Z,3.29
2023-03-17T05:43:19.327Z,3.29
2023-03-17T05:45:49.781Z,3.25
2023-03-17T05:48:18.186Z,3.25
2023-03-17T05:50:46.593Z,3.27
2023-03-17T05:53:15.646Z,3.20
2023-03-17T05:55:44.133Z,3.30
2023-03-17T05:58:14.802Z,3.33
2023-03-17T06:00:43.897Z,3.29
2023-03-17T06:03:12.476Z,3.29
2023-03-17T06:05:41.173Z,3.30
2023-03-17T06:08:10.079Z,3.32
2023-03-17T06:10:38.456Z,3.35
2023-03-17T06:13:07.231Z,3.30
2023-03-17T06:15:36.410Z,3.30
2023-03-17T06:18:05.770Z,3.36
2023-03-17T06:20:34.835Z,3.32
2023-03-17T06:23:05.620Z,3.34
2023-03-17T06:25:35.368Z,3.36
2023-03-17T06:28:04.689Z,3.47
2023-03-17T06:30:35.142Z,3.55
2023-03-17T06:33:05.062Z,3.62
2023-03-17T06:35:34.630Z,3.63
2023-03-17T06:38:03.268Z,3.66
2023-03-17T06:40:33.343Z,3.66
2023-03-17T06:43:02.652Z,3.75
2023-03-17T06:45:32.362Z,3.76
2023-03-17T06:48:00.940Z,3.84
2023-03-17T06:50:29.704Z,3.91
2023-03-17T06:52:58.164Z,3.91
2023-03-17T06:55:27.036Z,3.92
2023-03-17T06:57:55.477Z,3.94
2023-03-17T07:00:24.392Z,4.05
2023-03-17T07:02:53.025Z,4.11
2023-03-17T07:05:22.058Z,4.16
2023-03-17T07:07:50.422Z,4.26
2023-03-17T07:10:19.573Z,4.31
2023-03-17T07:12:48.514Z,4.38
2023-03-17T07:15:18.264Z,4.46
2023-03-17T07:17:47.451Z,4.54
2023-03-17T07:20:16.100Z,4.61
2023-03-17T07:22:44.393Z,4.64
2023-03-17T07:25:12.917Z,4.66
2023-03-17T07:27:41.664Z,4.71
2023-03-17T07:30:14.280Z,4.78
2023-03-17T07:32:42.583Z,4.87
2023-03-17T07:35:11.596Z,4.95
2023-03-17T07:37:39.958Z,5.02
2023-03-17T07:40:11.035Z,5.10
2023-03-17T07:42:39.404Z,5.16
2023-03-17T07:45:09.412Z,5.25
2023-03-17T07:47:38.580Z,5.28
2023-03-17T07:50:08.876Z,5.30
2023-03-17T07:52:37.315Z,5.36
2023-03-17T07:55:09.922Z,5.41
2023-03-17T07:57:38.900Z,5.44
2023-03-17T08:00:10.131Z,5.52
2023-03-17T08:02:41.598Z,5.59
2023-03-17T08:05:11.077Z,5.66
2023-03-17T08:07:39.841Z,5.73
2023-03-17T08:10:12.162Z,5.75
2023-03-17T08:12:41.195Z,5.83
2023-03-17T08:15:11.458Z,5.89
2023-03-17T08:17:40.058Z,5.90
2023-03-17T08:20:11.451Z,5.95
2023-03-17T08:22:39.883Z,6.00
2023-03-17T08:25:10.763Z,6.07
2023-03-17T08:27:39.341Z,6.12
2023-03-17T08:30:10.638Z,6.15
2023-03-17T08:32:39.164Z,6.26
2023-03-17T08:35:10.980Z,6.29
2023-03-17T08:37:39.352Z,6.38
2023-03-17T08:40:09.717Z,6.46
2023-03-17T08:42:38.084Z,6.48
2023-03-17T08:45:09.440Z,6.54
2023-03-17T08:47:38.593Z,6.61
2023-03-17T08:50:10.677Z,6.64
2023-03-17T08:52:38.979Z,6.68
2023-03-17T08:55:08.363Z,6.75
2023-03-17T08:57:37.345Z,6.79
2023-03-17T09:00:10.501Z,6.85
2023-03-17T09:02:40.643Z,6.86
2023-03-17T09:05:10.968Z,6.87
2023-03-17T09:07:39.318Z,6.90
2023-03-17T09:10:10.531Z,7.02
2023-03-17T09:12:39.100Z,7.12
2023-03-17T09:15:11.242Z,7.21
2023-03-17T09:17:43.075Z,7.30
2023-03-17T09:20:13.045Z,7.38
2023-03-17T09:22:41.950Z,7.36
2023-03-17T09:25:10.743Z,7.39
2023-03-17T09:27:39.245Z,7.39
2023-03-17T09:30:10.305Z,7.49
2023-03-17T09:32:39.501Z,7.54
2023-03-17T09:35:09.416Z,7.63
2023-03-17T09:37:38.646Z,7.72
2023-03-17T09:40:12.208Z,7.77
2023-03-17T09:42:51.827Z,7.75
2023-03-17T09:45:31.653Z,7.70
2023-03-17T09:48:23.962Z,7.71
2023-03-17T09:50:57.204Z,7.73
2023-03-17T09:53:33.329Z,7.74
2023-03-17T09:56:08.482Z,7.79
2023-03-17T09:58:39.038Z,7.88
2023-03-17T10:01:12.090Z,7.97
2023-03-17T10:03:41.986Z,8.20
2023-03-17T10:06:24.451Z,8.40
2023-03-17T10:08:59.872Z,8.50
2023-03-17T10:11:39.115Z,8.64
2023-03-17T10:14:23.018Z,8.73
2023-03-17T10:16:59.733Z,8.87
2023-03-17T10:19:32.339Z,9.06
2023-03-17T10:22:06.119Z,9.28
2023-03-17T10:24:41.242Z,9.43
2023-03-17T10:27:16.602Z,9.42
2023-03-17T10:29:48.358Z,9.49
2023-03-17T10:32:17.629Z,9.59
2023-03-17T10:34:48.103Z,9.60
2023-03-17T10:37:22.451Z,9.70
2023-03-17T10:39:53.825Z,9.89
2023-03-17T10:42:25.065Z,10.01
2023-03-17T10:44:56.047Z,10.10
2023-03-17T10:47:33.221Z,10.19
2023-03-17T10:50:17.321Z,10.14
2023-03-17T10:52:48.835Z,10.25
2023-03-17T10:55:21.798Z,10.30
2023-03-17T10:57:53.787Z,10.34
2023-03-17T11:00:24.381Z,10.33
2023-03-17T11:02:57.550Z,10.36
2023-03-17T11:05:28.543Z,10.51
2023-03-17T11:08:10.154Z,10.71
2023-03-17T11:10:40.052Z,10.87
2023-03-17T11:13:09.568Z,11.02
2023-03-17T11:15:42.735Z,11.09
2023-03-17T11:18:18.549Z,11.18
2023-03-17T11:20:56.143Z,11.16
2023-03-17T11:23:40.457Z,10.99
2023-03-17T11:26:22.161Z,11.00
2023-03-17T11:29:04.219Z,10.98
2023-03-17T11:31:40.930Z,11.00
2023-03-17T11:34:17.223Z,11.08
2023-03-17T11:36:57.791Z,11.26
2023-03-17T11:39:32.516Z,11.39
2023-03-17T11:45:04.953Z,11.65
2023-03-17T11:47:48.776Z,11.56
2023-03-17T11:50:29.047Z,11.64
2023-03-17T11:53:12.219Z,11.75
2023-03-17T11:55:50.082Z,11.82
2023-03-17T11:58:29.185Z,11.82
2023-03-17T12:01:03.871Z,11.82
2023-03-17T12:03:42.563Z,11.99
2023-03-17T12:06:20.530Z,12.12
2023-03-17T12:08:59.810Z,12.16
2023-03-17T12:11:36.801Z,12.12
2023-03-17T12:14:22.643Z,12.04
2023-03-17T12:17:01.303Z,11.83
2023-03-17T12:19:42.408Z,11.92
2023-03-17T12:22:22.775Z,11.94
2023-03-17T12:25:05.276Z,11.92
2023-03-17T12:27:45.788Z,12.05
2023-03-17T12:30:29.137Z,12.28
2023-03-17T12:33:06.260Z,12.36
2023-03-17T12:35:39.455Z,12.36
2023-03-17T12:38:17.525Z,12.37
2023-03-17T12:41:21.918Z,12.39
2023-03-17T12:44:06.118Z,12.44
2023-03-17T12:46:51.420Z,12.49
2023-03-17T12:52:55.748Z,12.67
2023-03-17T12:55:32.387Z,12.63
2023-03-17T12:58:18.071Z,12.58
2023-03-17T13:01:01.924Z,12.55
2023-03-17T13:03:37.136Z,12.57
2023-03-17T13:06:18.546Z,12.66
2023-03-17T13:08:53.837Z,12.72
2023-03-17T13:11:48.905Z,12.76
2023-03-17T13:14:28.294Z,12.78
2023-03-17T13:17:29.838Z,12.80
2023-03-17T13:20:16.130Z,12.81
2023-03-17T13:23:04.073Z,12.73
2023-03-17T13:25:49.792Z,12.74
2023-03-17T13:28:28.784Z,12.73
2023-03-17T13:31:13.154Z,12.82
2023-03-17T13:33:50.562Z,12.67
2023-03-17T13:36:38.519Z,12.63
2023-03-17T13:39:39.720Z,12.55
2023-03-17T13:42:57.025Z,12.57
2023-03-17T13:45:44.037Z,12.68
2023-03-17T13:48:36.343Z,12.76
2023-03-17T13:51:20.746Z,12.81
2023-03-17T13:53:56.413Z,12.78
2023-03-17T13:56:46.759Z,12.85
2023-03-17T13:59:20.287Z,12.74
2023-03-17T14:01:58.891Z,12.82
2023-03-17T14:04:41.744Z,12.76
2023-03-17T14:07:20.413Z,12.65
2023-03-17T14:09:59.284Z,12.76
2023-03-17T14:12:40.370Z,12.82
2023-03-17T14:15:21.642Z,12.91
2023-03-17T14:17:57.610Z,12.96
2023-03-17T14:20:30.646Z,12.88
2023-03-17T14:23:05.010Z,12.80
2023-03-17T14:25:38.727Z,12.72
2023-03-17T14:28:15.443Z,12.59
2023-03-17T14:30:55.855Z,12.55
2023-03-17T14:33:29.264Z,12.60
2023-03-17T14:36:04.362Z,12.65
2023-03-17T14:38:38.125Z,12.70
2023-03-17T14:41:17.531Z,12.62
2023-03-17T14:43:51.171Z,12.55
2023-03-17T14:46:27.492Z,12.50
2023-03-17T14:49:03.355Z,12.47
2023-03-17T14:51:37.642Z,12.48
2023-03-17T14:54:16.718Z,12.44
2023-03-17T14:56:52.909Z,12.36
2023-03-17T14:59:30.383Z,12.34
2023-03-17T15:02:05.037Z,12.26
2023-03-17T15:04:36.921Z,12.20
2023-03-17T15:07:22.450Z,12.07
2023-03-17T15:10:02.936Z,12.09
2023-03-17T15:12:34.898Z,12.04
2023-03-17T15:15:15.455Z,12.00
2023-03-17T15:17:51.418Z,12.03
2023-03-17T15:20:23.752Z,11.94
2023-03-17T15:23:01.494Z,11.93
2023-03-17T15:25:40.342Z,11.96
2023-03-17T15:28:15.975Z,11.91
2023-03-17T15:30:50.472Z,11.76
2023-03-17T15:33:31.847Z,11.79
2023-03-17T15:36:04.098Z,11.77
2023-03-17T15:38:38.892Z,11.77
2023-03-17T15:41:11.493Z,11.69
2023-03-17T15:43:44.492Z,11.64
2023-03-17T15:46:27.470Z,11.60
2023-03-17T15:49:01.801Z,11.52
2023-03-17T15:51:34.329Z,11.52
2023-03-17T15:54:06.406Z,11.46
2023-03-17T15:56:39.704Z,11.44
2023-03-17T15:59:12.071Z,11.42
2023-03-17T16:01:44.333Z,11.42
2023-03-17T16:04:17.955Z,11.42
2023-03-17T16:06:50.061Z,11.37
2023-03-17T16:09:21.929Z,11.30
2023-03-17T16:11:54.216Z,11.26
2023-03-17T16:14:27.049Z,11.22
2023-03-17T16:16:59.016Z,11.16
2023-03-17T16:19:31.193Z,11.08
2023-03-17T16:22:03.584Z,11.04
2023-03-17T16:24:35.567Z,11.00
2023-03-17T16:27:15.895Z,10.97
2023-03-17T16:29:47.698Z,10.95
2023-03-17T16:32:19.598Z,10.91
2023-03-17T16:34:52.171Z,10.82
2023-03-17T16:37:24.071Z,10.78
2023-03-17T16:39:55.888Z,10.74
2023-03-17T16:42:28.305Z,10.72
2023-03-17T16:45:00.350Z,10.70
2023-03-17T16:47:32.300Z,10.68
2023-03-17T16:50:04.501Z,10.58
2023-03-17T16:52:36.210Z,10.52
2023-03-17T16:55:14.229Z,10.52
2023-03-17T16:57:48.786Z,10.51
2023-03-17T17:00:24.712Z,10.41
2023-03-17T17:02:57.394Z,10.35
2023-03-17T17:05:28.778Z,10.32
2023-03-17T17:08:01.622Z,10.30
2023-03-17T17:10:34.943Z,10.28
2023-03-17T17:13:09.022Z,10.25
2023-03-17T17:15:41.930Z,10.18
2023-03-17T17:18:17.477Z,10.11
2023-03-17T17:20:51.537Z,10.12
2023-03-17T17:23:26.230Z,10.11
2023-03-17T17:25:58.352Z,10.06
2023-03-17T17:28:30.183Z,10.04
2023-03-17T17:31:03.040Z,9.99
2023-03-17T17:33:36.393Z,9.92
2023-03-17T17:36:14.676Z,9.90
2023-03-17T17:38:47.023Z,9.89
2023-03-17T17:41:21.522Z,9.85
2023-03-17T17:43:54.185Z,9.83
2023-03-17T17:46:24.646Z,9.72
2023-03-17T17:48:56.723Z,9.68
2023-03-17T17:51:28.766Z,9.67
2023-03-17T17:54:00.781Z,9.66
2023-03-17T17:56:36.704Z,9.64
2023-03-17T17:59:08.499Z,9.61
2023-03-17T18:01:42.789Z,9.60
2023-03-17T18:04:14.608Z,9.56
2023-03-17T18:06:46.624Z,9.55
2023-03-17T18:09:19.026Z,9.49
2023-03-17T18:11:51.156Z,9.51
2023-03-17T18:14:22.857Z,9.51
2023-03-17T18:16:55.160Z,9.48
2023-03-17T18:19:27.727Z,9.42
2023-03-17T18:21:59.687Z,9.33
2023-03-17T18:24:31.482Z,9.31
2023-03-17T18:27:03.814Z,9.25
2023-03-17T18:29:36.840Z,9.24
2023-03-17T18:32:09.604Z,9.18
2023-03-17T18:34:45.339Z,9.10
2023-03-17T18:37:19.662Z,9.11
2023-03-17T18:40:11.652Z,9.09
2023-03-17T18:42:44.012Z,9.05
2023-03-17T18:45:16.291Z,9.05
2023-03-17T18:47:48.269Z,9.02
2023-03-17T18:50:22.042Z,9.03
2023-03-17T18:52:55.827Z,9.03
2023-03-17T18:55:27.769Z,8.98
2023-03-17T18:57:59.679Z,8.98
2023-03-17T19:00:31.611Z,8.95
2023-03-17T19:03:03.637Z,8.89
2023-03-17T19:05:39.414Z,8.88
2023-03-17T19:08:11.580Z,8.86
2023-03-17T19:10:46.524Z,8.83
2023-03-17T19:13:20.570Z,8.79
2023-03-17T19:15:52.503Z,8.76
2023-03-17T19:18:24.274Z,8.75
2023-03-17T19:20:56.685Z,8.74
2023-03-17T19:23:29.951Z,8.70
2023-03-17T19:26:02.196Z,8.77
2023-03-17T19:28:34.369Z,8.72
2023-03-17T19:31:06.635Z,8.69
2023-03-17T19:33:38.838Z,8.64
2023-03-17T19:36:14.061Z,8.66
2023-03-17T19:38:46.315Z,8.65
2023-03-17T19:41:18.246Z,8.63
2023-03-17T19:43:50.178Z,8.59
2023-03-17T19:46:23.986Z,8.58
2023-03-17T19:48:57.809Z,8.53
2023-03-17T19:51:30.195Z,8.53
2023-03-17T19:54:03.100Z,8.54
2023-03-17T19:56:35.386Z,8.52
2023-03-17T19:59:09.060Z,8.48
2023-03-17T20:01:42.285Z,8.50
2023-03-17T20:04:17.638Z,8.50
2023-03-17T20:06:52.211Z,8.49
2023-03-17T20:09:25.567Z,8.45
2023-03-17T20:11:57.713Z,8.43
2023-03-17T20:14:29.834Z,8.40
2023-03-17T20:17:02.279Z,8.40
2023-03-17T20:19:36.795Z,8.37
2023-03-17T20:22:09.167Z,8.35
2023-03-17T20:24:42.039Z,8.34
2023-03-17T20:27:15.435Z,8.31
2023-03-17T20:29:48.645Z,8.32
2023-03-17T20:32:20.930Z,8.24
2023-03-17T20:34:52.766Z,8.24
2023-03-17T20:37:25.538Z,8.21
2023-03-17T20:39:57.575Z,8.18
2023-03-17T20:42:29.373Z,8.10
2023-03-17T20:45:03.507Z,8.05
2023-03-17T20:47:36.119Z,8.01
2023-03-17T20:50:09.919Z,7.96
2023-03-17T20:52:46.402Z,7.88
2023-03-17T20:55:20.232Z,7.89
2023-03-17T20:57:52.837Z,7.86
2023-03-17T21:00:26.321Z,7.86
2023-03-17T21:02:58.500Z,7.83
2023-03-17T21:05:32.324Z,7.84
2023-03-17T21:08:05.561Z,7.81
2023-03-17T21:10:36.019Z,7.79
2023-03-17T21:13:08.102Z,7.78
2023-03-17T21:15:41.221Z,7.73
2023-03-17T21:18:15.472Z,7.68
2023-03-17T21:20:48.237Z,7.59
2023-03-17T21:23:18.545Z,7.64
2023-03-17T21:25:55.271Z,7.58
2023-03-17T21:28:27.492Z,7.58
2023-03-17T21:30:59.730Z,7.53
2023-03-17T21:33:32.435Z,7.52
2023-03-17T21:36:04.692Z,7.48
2023-03-17T21:38:37.596Z,7.50
2023-03-17T21:41:27.897Z,7.47
2023-03-17T21:44:00.263Z,7.42
2023-03-17T21:46:33.581Z,7.41
2023-03-17T21:49:06.033Z,7.54
2023-03-17T21:51:38.438Z,7.41
2023-03-17T21:54:10.651Z,7.34
2023-03-17T21:56:42.943Z,7.33
2023-03-17T21:59:15.502Z,7.28
2023-03-17T22:01:48.212Z,7.28
2023-03-17T22:04:18.437Z,7.25
2023-03-17T22:06:51.780Z,7.22
2023-03-17T22:09:23.655Z,7.17
2023-03-17T22:11:55.735Z,7.13
2023-03-17T22:14:27.554Z,7.16
2023-03-17T22:16:59.753Z,7.17
2023-03-17T22:19:32.024Z,7.09
2023-03-17T22:22:04.150Z,7.04
2023-03-17T22:24:36.352Z,7.04
2023-03-17T22:27:09.356Z,7.05
2023-03-17T22:29:41.094Z,7.09
2023-03-17T22:32:13.339Z,7.05
2023-03-17T22:34:45.231Z,7.06
2023-03-17T22:37:17.016Z,7.04
2023-03-17T22:39:49.206Z,7.02
2023-03-17T22:42:21.310Z,7.02
2023-03-17T22:44:53.198Z,6.98
2023-03-17T22:47:25.002Z,7.01
2023-03-17T22:49:56.813Z,6.95
2023-03-17T22:52:28.889Z,6.90
2023-03-17T22:55:01.020Z,6.91
2023-03-17T22:57:32.798Z,6.89
2023-03-17T23:00:08.957Z,6.88
2023-03-17T23:02:40.815Z,6.86
2023-03-17T23:05:14.444Z,6.86
2023-03-17T23:07:53.275Z,6.86
2023-03-17T23:10:25.348Z,6.81
2023-03-17T23:12:57.100Z,6.79
2023-03-17T23:15:29.340Z,6.74
2023-03-17T23:18:01.755Z,6.72
2023-03-17T23:20:34.375Z,6.76
2023-03-17T23:23:06.974Z,6.76
2023-03-17T23:25:39.558Z,6.78
2023-03-17T23:28:11.562Z,6.79
2023-03-17T23:30:45.699Z,6.73
2023-03-17T23:33:21.158Z,6.68
2023-03-17T23:35:53.618Z,6.61
2023-03-17T23:38:25.373Z,6.58
2023-03-17T23:40:58.218Z,6.56
2023-03-17T23:43:28.456Z,6.56
2023-03-17T23:46:01.883Z,6.57
2023-03-17T23:48:33.869Z,6.55
2023-03-17T23:51:06.317Z,6.55
2023-03-17T23:53:39.487Z,6.56
2023-03-17T23:56:12.947Z,6.50
2023-03-17T23:58:45.035Z,6.50
